Terminal Aerodrome Forecast
Issued by NWS

Home | Current Version | Previous Version | Text Only | Print | Product List | Glossary Off
Versions: 1 2 3 4 5 6 7 8 9 10 11 12 13 14 15 16 17 18 19 20 21 22 23 24

119
FTUS45 KGGW 242320
TAFOLF
TAF
KOLF 242320Z 2500/2524 16008KT P6SM FEW160
     FM250400 12008KT P6SM BKN170 WS020/18035KT
     FM250900 17008KT P6SM BKN110=

USA.gov is the U.S. government's official web portal to all federal, state and local government web resources and services.